sensor_id;sensor_type;location;lat;lon;timestamp;P1;durP1;ratioP1;P2;durP2;ratioP2
12271;SDS011;6198;51.446;6.698;2023-03-01T00:02:18;9.63;;;7.90;;
12271;SDS011;6198;51.446;6.698;2023-03-01T00:04:44;12.80;;;8.40;;
12271;SDS011;6198;51.446;6.698;2023-03-01T00:07:10;14.70;;;9.40;;
12271;SDS011;6198;51.446;6.698;2023-03-01T00:09:36;11.47;;;8.30;;
12271;SDS011;6198;51.446;6.698;2023-03-01T00:12:03;10.73;;;8.80;;
12271;SDS011;6198;51.446;6.698;2023-03-01T00:14:29;13.27;;;9.47;;
12271;SDS011;6198;51.446;6.698;2023-03-01T00:16:55;10.73;;;8.37;;
12271;SDS011;6198;51.446;6.698;2023-03-01T00:19:21;13.83;;;9.07;;
12271;SDS011;6198;51.446;6.698;2023-03-01T00:21:47;11.90;;;9.33;;
12271;SDS011;6198;51.446;6.698;2023-03-01T00:24:13;9.40;;;8.50;;
12271;SDS011;6198;51.446;6.698;2023-03-01T00:26:39;10.97;;;8.87;;
12271;SDS011;6198;51.446;6.698;2023-03-01T00:29:05;11.27;;;8.53;;
12271;SDS011;6198;51.446;6.698;2023-03-01T00:31:32;12.73;;;8.80;;
12271;SDS011;6198;51.446;6.698;2023-03-01T00:33:59;11.10;;;9.13;;
12271;SDS011;6198;51.446;6.698;2023-03-01T00:36:26;10.40;;;8.87;;
12271;SDS011;6198;51.446;6.698;2023-03-01T00:38:52;12.27;;;8.23;;
12271;SDS011;6198;51.446;6.698;2023-03-01T00:41:19;12.03;;;8.63;;
12271;SDS011;6198;51.446;6.698;2023-03-01T00:43:47;11.77;;;8.70;;
12271;SDS011;6198;51.446;6.698;2023-03-01T00:46:15;11.00;;;8.27;;
12271;SDS011;6198;51.446;6.698;2023-03-01T00:48:41;11.80;;;8.70;;
12271;SDS011;6198;51.446;6.698;2023-03-01T00:51:11;11.70;;;8.93;;
12271;SDS011;6198;51.446;6.698;2023-03-01T00:53:38;12.60;;;8.83;;
12271;SDS011;6198;51.446;6.698;2023-03-01T00:56:04;11.67;;;9.27;;
12271;SDS011;6198;51.446;6.698;2023-03-01T00:58:30;11.80;;;9.27;;
12271;SDS011;6198;51.446;6.698;2023-03-01T01:00:56;12.10;;;8.77;;
12271;SDS011;6198;51.446;6.698;2023-03-01T01:03:22;10.53;;;9.00;;
12271;SDS011;6198;51.446;6.698;2023-03-01T01:05:50;15.23;;;9.20;;
12271;SDS011;6198;51.446;6.698;2023-03-01T01:08:16;13.50;;;8.70;;
12271;SDS011;6198;51.446;6.698;2023-03-01T01:10:43;10.17;;;8.33;;
12271;SDS011;6198;51.446;6.698;2023-03-01T01:13:09;10.50;;;9.13;;
12271;SDS011;6198;51.446;6.698;2023-03-01T01:15:35;11.97;;;8.97;;
12271;SDS011;6198;51.446;6.698;2023-03-01T01:18:01;9.57;;;8.47;;
12271;SDS011;6198;51.446;6.698;2023-03-01T01:20:27;11.87;;;9.20;;
12271;SDS011;6198;51.446;6.698;2023-03-01T01:22:53;13.57;;;8.90;;
12271;SDS011;6198;51.446;6.698;2023-03-01T01:25:19;14.07;;;9.03;;
12271;SDS011;6198;51.446;6.698;2023-03-01T01:27:45;13.40;;;8.63;;
12271;SDS011;6198;51.446;6.698;2023-03-01T01:30:11;14.37;;;8.73;;
12271;SDS011;6198;51.446;6.698;2023-03-01T01:32:38;12.97;;;9.50;;
12271;SDS011;6198;51.446;6.698;2023-03-01T01:35:04;11.57;;;9.00;;
12271;SDS011;6198;51.446;6.698;2023-03-01T01:37:29;11.87;;;9.47;;
12271;SDS011;6198;51.446;6.698;2023-03-01T01:39:59;12.90;;;9.80;;
12271;SDS011;6198;51.446;6.698;2023-03-01T01:42:25;10.20;;;8.93;;
12271;SDS011;6198;51.446;6.698;2023-03-01T01:47:35;11.83;;;9.20;;
12271;SDS011;6198;51.446;6.698;2023-03-01T01:50:01;12.33;;;9.37;;
12271;SDS011;6198;51.446;6.698;2023-03-01T01:52:32;12.60;;;9.50;;
12271;SDS011;6198;51.446;6.698;2023-03-01T01:55:02;12.27;;;9.83;;
12271;SDS011;6198;51.446;6.698;2023-03-01T01:57:33;13.17;;;9.77;;
12271;SDS011;6198;51.446;6.698;2023-03-01T02:00:00;14.23;;;10.07;;
12271;SDS011;6198;51.446;6.698;2023-03-01T02:02:28;10.93;;;9.73;;
12271;SDS011;6198;51.446;6.698;2023-03-01T02:04:56;11.20;;;9.47;;
12271;SDS011;6198;51.446;6.698;2023-03-01T02:07:24;12.50;;;10.27;;
12271;SDS011;6198;51.446;6.698;2023-03-01T02:09:51;16.10;;;10.03;;
12271;SDS011;6198;51.446;6.698;2023-03-01T02:12:19;14.53;;;10.37;;
12271;SDS011;6198;51.446;6.698;2023-03-01T02:14:46;12.40;;;9.67;;
12271;SDS011;6198;51.446;6.698;2023-03-01T02:17:12;13.67;;;9.73;;
12271;SDS011;6198;51.446;6.698;2023-03-01T02:22:24;11.77;;;9.50;;
12271;SDS011;6198;51.446;6.698;2023-03-01T02:27:16;11.40;;;8.83;;
12271;SDS011;6198;51.446;6.698;2023-03-01T02:29:49;13.80;;;9.73;;
12271;SDS011;6198;51.446;6.698;2023-03-01T02:32:15;13.10;;;9.27;;
12271;SDS011;6198;51.446;6.698;2023-03-01T02:34:49;11.10;;;9.93;;
12271;SDS011;6198;51.446;6.698;2023-03-01T02:37:15;12.27;;;9.60;;
12271;SDS011;6198;51.446;6.698;2023-03-01T02:39:49;14.03;;;9.57;;
12271;SDS011;6198;51.446;6.698;2023-03-01T02:42:18;14.20;;;9.63;;
12271;SDS011;6198;51.446;6.698;2023-03-01T02:44:48;13.50;;;9.03;;
12271;SDS011;6198;51.446;6.698;2023-03-01T02:47:14;11.43;;;9.70;;
12271;SDS011;6198;51.446;6.698;2023-03-01T02:49:40;12.60;;;9.83;;
12271;SDS011;6198;51.446;6.698;2023-03-01T02:54:49;14.07;;;10.13;;
12271;SDS011;6198;51.446;6.698;2023-03-01T02:57:16;11.50;;;10.17;;
12271;SDS011;6198;51.446;6.698;2023-03-01T02:59:43;16.53;;;10.00;;
12271;SDS011;6198;51.446;6.698;2023-03-01T03:02:19;13.83;;;10.67;;
12271;SDS011;6198;51.446;6.698;2023-03-01T03:04:47;12.27;;;10.13;;
12271;SDS011;6198;51.446;6.698;2023-03-01T03:07:13;13.87;;;9.77;;
12271;SDS011;6198;51.446;6.698;2023-03-01T03:09:39;14.10;;;10.13;;
12271;SDS011;6198;51.446;6.698;2023-03-01T03:12:05;13.83;;;10.70;;
12271;SDS011;6198;51.446;6.698;2023-03-01T03:14:31;17.90;;;10.30;;
12271;SDS011;6198;51.446;6.698;2023-03-01T03:16:59;14.20;;;10.73;;
12271;SDS011;6198;51.446;6.698;2023-03-01T03:19:25;13.50;;;9.90;;
12271;SDS011;6198;51.446;6.698;2023-03-01T03:21:51;16.90;;;10.47;;
12271;SDS011;6198;51.446;6.698;2023-03-01T03:24:17;18.13;;;11.37;;
12271;SDS011;6198;51.446;6.698;2023-03-01T03:26:43;20.93;;;12.03;;
12271;SDS011;6198;51.446;6.698;2023-03-01T03:29:09;16.80;;;11.07;;
12271;SDS011;6198;51.446;6.698;2023-03-01T03:31:35;18.03;;;11.57;;
12271;SDS011;6198;51.446;6.698;2023-03-01T03:34:01;23.87;;;13.63;;
12271;SDS011;6198;51.446;6.698;2023-03-01T03:36:27;23.33;;;12.13;;
12271;SDS011;6198;51.446;6.698;2023-03-01T03:38:53;25.17;;;12.50;;
12271;SDS011;6198;51.446;6.698;2023-03-01T03:41:19;20.23;;;12.47;;
12271;SDS011;6198;51.446;6.698;2023-03-01T03:43:45;18.10;;;11.20;;
12271;SDS011;6198;51.446;6.698;2023-03-01T03:46:11;18.27;;;12.53;;
12271;SDS011;6198;51.446;6.698;2023-03-01T03:48:39;17.47;;;11.97;;
12271;SDS011;6198;51.446;6.698;2023-03-01T03:51:05;15.83;;;10.93;;
12271;SDS011;6198;51.446;6.698;2023-03-01T03:53:31;16.00;;;11.87;;
12271;SDS011;6198;51.446;6.698;2023-03-01T03:55:58;16.80;;;11.03;;
12271;SDS011;6198;51.446;6.698;2023-03-01T03:58:24;14.53;;;10.80;;
12271;SDS011;6198;51.446;6.698;2023-03-01T04:00:51;14.43;;;11.00;;
12271;SDS011;6198;51.446;6.698;2023-03-01T04:03:18;16.00;;;11.30;;
12271;SDS011;6198;51.446;6.698;2023-03-01T04:05:44;13.50;;;11.17;;
12271;SDS011;6198;51.446;6.698;2023-03-01T04:08:10;14.30;;;11.67;;
12271;SDS011;6198;51.446;6.698;2023-03-01T04:10:37;12.20;;;10.73;;
12271;SDS011;6198;51.446;6.698;2023-03-01T04:13:08;13.43;;;11.53;;
12271;SDS011;6198;51.446;6.698;2023-03-01T04:15:35;13.77;;;11.27;;
12271;SDS011;6198;51.446;6.698;2023-03-01T04:18:01;17.60;;;10.90;;
12271;SDS011;6198;51.446;6.698;2023-03-01T04:20:28;15.60;;;11.40;;
12271;SDS011;6198;51.446;6.698;2023-03-01T04:22:59;14.00;;;11.23;;
12271;SDS011;6198;51.446;6.698;2023-03-01T04:25:35;16.97;;;11.27;;
12271;SDS011;6198;51.446;6.698;2023-03-01T04:28:01;15.23;;;10.83;;
12271;SDS011;6198;51.446;6.698;2023-03-01T04:30:27;13.97;;;11.13;;
12271;SDS011;6198;51.446;6.698;2023-03-01T04:32:53;15.93;;;11.77;;
12271;SDS011;6198;51.446;6.698;2023-03-01T04:35:18;14.47;;;11.00;;
12271;SDS011;6198;51.446;6.698;2023-03-01T04:37:45;17.07;;;11.23;;
12271;SDS011;6198;51.446;6.698;2023-03-01T04:40:11;12.23;;;10.67;;
12271;SDS011;6198;51.446;6.698;2023-03-01T04:42:40;14.70;;;10.67;;
12271;SDS011;6198;51.446;6.698;2023-03-01T04:45:07;15.63;;;11.03;;
12271;SDS011;6198;51.446;6.698;2023-03-01T04:47:38;13.43;;;11.37;;
12271;SDS011;6198;51.446;6.698;2023-03-01T04:50:04;14.77;;;11.23;;
12271;SDS011;6198;51.446;6.698;2023-03-01T04:52:30;15.00;;;10.83;;
12271;SDS011;6198;51.446;6.698;2023-03-01T04:54:56;15.07;;;11.80;;
12271;SDS011;6198;51.446;6.698;2023-03-01T04:57:22;12.97;;;11.50;;
12271;SDS011;6198;51.446;6.698;2023-03-01T04:59:48;14.20;;;11.50;;
12271;SDS011;6198;51.446;6.698;2023-03-01T05:02:14;14.10;;;10.60;;
12271;SDS011;6198;51.446;6.698;2023-03-01T05:04:40;16.90;;;11.33;;
12271;SDS011;6198;51.446;6.698;2023-03-01T05:07:06;15.03;;;11.00;;
12271;SDS011;6198;51.446;6.698;2023-03-01T05:09:32;14.30;;;10.23;;
12271;SDS011;6198;51.446;6.698;2023-03-01T05:11:58;13.63;;;10.73;;
12271;SDS011;6198;51.446;6.698;2023-03-01T05:14:24;15.83;;;10.73;;
12271;SDS011;6198;51.446;6.698;2023-03-01T05:16:50;13.93;;;11.27;;
12271;SDS011;6198;51.446;6.698;2023-03-01T05:19:16;14.20;;;10.87;;
12271;SDS011;6198;51.446;6.698;2023-03-01T05:21:47;13.87;;;10.20;;
12271;SDS011;6198;51.446;6.698;2023-03-01T05:24:43;15.10;;;11.07;;
12271;SDS011;6198;51.446;6.698;2023-03-01T05:27:09;14.43;;;11.10;;
12271;SDS011;6198;51.446;6.698;2023-03-01T05:29:35;14.10;;;11.03;;
12271;SDS011;6198;51.446;6.698;2023-03-01T05:32:01;12.83;;;10.17;;
12271;SDS011;6198;51.446;6.698;2023-03-01T05:34:29;13.03;;;10.07;;
12271;SDS011;6198;51.446;6.698;2023-03-01T05:36:55;13.47;;;10.50;;
12271;SDS011;6198;51.446;6.698;2023-03-01T05:39:22;14.70;;;10.67;;
12271;SDS011;6198;51.446;6.698;2023-03-01T05:41:51;14.33;;;10.50;;
12271;SDS011;6198;51.446;6.698;2023-03-01T05:44:17;14.00;;;10.40;;
12271;SDS011;6198;51.446;6.698;2023-03-01T05:46:43;12.77;;;9.83;;
12271;SDS011;6198;51.446;6.698;2023-03-01T05:49:09;16.70;;;9.97;;
12271;SDS011;6198;51.446;6.698;2023-03-01T05:51:35;14.53;;;11.13;;
12271;SDS011;6198;51.446;6.698;2023-03-01T05:54:01;15.63;;;10.67;;
12271;SDS011;6198;51.446;6.698;2023-03-01T05:56:30;12.90;;;8.90;;
12271;SDS011;6198;51.446;6.698;2023-03-01T05:58:57;12.27;;;9.67;;
12271;SDS011;6198;51.446;6.698;2023-03-01T06:01:23;17.17;;;10.00;;
12271;SDS011;6198;51.446;6.698;2023-03-01T06:03:49;14.10;;;9.87;;
12271;SDS011;6198;51.446;6.698;2023-03-01T06:06:15;16.53;;;9.90;;
12271;SDS011;6198;51.446;6.698;2023-03-01T06:08:41;15.10;;;9.73;;
12271;SDS011;6198;51.446;6.698;2023-03-01T06:11:07;20.33;;;12.23;;
12271;SDS011;6198;51.446;6.698;2023-03-01T06:13:33;17.87;;;12.33;;
12271;SDS011;6198;51.446;6.698;2023-03-01T06:15:59;22.20;;;14.33;;
12271;SDS011;6198;51.446;6.698;2023-03-01T06:18:25;21.10;;;13.30;;
12271;SDS011;6198;51.446;6.698;2023-03-01T06:20:54;32.23;;;14.90;;
12271;SDS011;6198;51.446;6.698;2023-03-01T06:23:21;37.80;;;16.73;;
12271;SDS011;6198;51.446;6.698;2023-03-01T06:25:46;23.10;;;13.63;;
12271;SDS011;6198;51.446;6.698;2023-03-01T06:28:12;23.83;;;12.47;;
12271;SDS011;6198;51.446;6.698;2023-03-01T06:30:38;20.33;;;13.00;;
12271;SDS011;6198;51.446;6.698;2023-03-01T06:33:04;19.03;;;12.87;;
12271;SDS011;6198;51.446;6.698;2023-03-01T06:35:30;18.23;;;11.03;;
12271;SDS011;6198;51.446;6.698;2023-03-01T06:37:56;19.67;;;11.73;;
12271;SDS011;6198;51.446;6.698;2023-03-01T06:40:23;19.47;;;11.90;;
12271;SDS011;6198;51.446;6.698;2023-03-01T06:42:49;10.07;;;7.03;;
12271;SDS011;6198;51.446;6.698;2023-03-01T06:45:16;18.43;;;12.17;;
12271;SDS011;6198;51.446;6.698;2023-03-01T06:47:42;29.70;;;13.07;;
12271;SDS011;6198;51.446;6.698;2023-03-01T06:50:08;29.30;;;13.37;;
12271;SDS011;6198;51.446;6.698;2023-03-01T06:52:34;23.43;;;13.20;;
12271;SDS011;6198;51.446;6.698;2023-03-01T06:55:00;18.63;;;10.93;;
12271;SDS011;6198;51.446;6.698;2023-03-01T06:57:26;18.57;;;10.70;;
12271;SDS011;6198;51.446;6.698;2023-03-01T06:59:53;17.67;;;11.03;;
12271;SDS011;6198;51.446;6.698;2023-03-01T07:02:19;11.83;;;9.40;;
12271;SDS011;6198;51.446;6.698;2023-03-01T07:04:44;13.87;;;8.27;;
12271;SDS011;6198;51.446;6.698;2023-03-01T07:07:11;14.60;;;10.03;;
12271;SDS011;6198;51.446;6.698;2023-03-01T07:09:37;18.03;;;10.50;;
12271;SDS011;6198;51.446;6.698;2023-03-01T07:12:03;16.20;;;11.43;;
12271;SDS011;6198;51.446;6.698;2023-03-01T07:14:29;14.20;;;9.67;;
12271;SDS011;6198;51.446;6.698;2023-03-01T07:16:55;13.83;;;9.53;;
12271;SDS011;6198;51.446;6.698;2023-03-01T07:19:21;18.80;;;12.03;;
12271;SDS011;6198;51.446;6.698;2023-03-01T07:21:48;15.60;;;11.17;;
12271;SDS011;6198;51.446;6.698;2023-03-01T07:24:17;17.57;;;10.87;;
12271;SDS011;6198;51.446;6.698;2023-03-01T07:26:42;16.00;;;8.87;;
12271;SDS011;6198;51.446;6.698;2023-03-01T07:29:09;21.13;;;10.50;;
12271;SDS011;6198;51.446;6.698;2023-03-01T07:31:35;16.13;;;9.30;;
12271;SDS011;6198;51.446;6.698;2023-03-01T07:34:01;21.70;;;12.20;;
12271;SDS011;6198;51.446;6.698;2023-03-01T07:36:27;22.37;;;12.20;;
12271;SDS011;6198;51.446;6.698;2023-03-01T07:38:53;19.00;;;11.73;;
12271;SDS011;6198;51.446;6.698;2023-03-01T07:41:20;15.73;;;9.80;;
12271;SDS011;6198;51.446;6.698;2023-03-01T07:43:46;12.97;;;7.37;;
12271;SDS011;6198;51.446;6.698;2023-03-01T07:46:12;13.50;;;9.77;;
12271;SDS011;6198;51.446;6.698;2023-03-01T07:48:39;19.93;;;11.43;;
12271;SDS011;6198;51.446;6.698;2023-03-01T07:51:05;21.23;;;7.37;;
12271;SDS011;6198;51.446;6.698;2023-03-01T07:53:32;12.90;;;8.03;;
12271;SDS011;6198;51.446;6.698;2023-03-01T07:56:09;18.33;;;9.77;;
12271;SDS011;6198;51.446;6.698;2023-03-01T07:58:40;13.63;;;7.00;;
12271;SDS011;6198;51.446;6.698;2023-03-01T08:01:07;10.30;;;7.17;;
12271;SDS011;6198;51.446;6.698;2023-03-01T08:03:34;16.03;;;10.80;;
12271;SDS011;6198;51.446;6.698;2023-03-01T08:06:00;16.20;;;8.83;;
12271;SDS011;6198;51.446;6.698;2023-03-01T08:08:26;12.83;;;8.93;;
12271;SDS011;6198;51.446;6.698;2023-03-01T08:10:55;15.20;;;10.47;;
12271;SDS011;6198;51.446;6.698;2023-03-01T08:13:21;12.90;;;8.97;;
12271;SDS011;6198;51.446;6.698;2023-03-01T08:15:48;15.53;;;9.80;;
12271;SDS011;6198;51.446;6.698;2023-03-01T08:18:14;11.93;;;8.10;;
12271;SDS011;6198;51.446;6.698;2023-03-01T08:20:40;16.77;;;9.60;;
12271;SDS011;6198;51.446;6.698;2023-03-01T08:23:06;16.13;;;11.07;;
12271;SDS011;6198;51.446;6.698;2023-03-01T08:25:32;18.03;;;11.20;;
12271;SDS011;6198;51.446;6.698;2023-03-01T08:27:58;11.40;;;7.60;;
12271;SDS011;6198;51.446;6.698;2023-03-01T08:30:24;15.90;;;9.70;;
12271;SDS011;6198;51.446;6.698;2023-03-01T08:32:50;10.43;;;8.67;;
12271;SDS011;6198;51.446;6.698;2023-03-01T08:35:17;8.40;;;6.63;;
12271;SDS011;6198;51.446;6.698;2023-03-01T08:37:43;12.43;;;9.20;;
12271;SDS011;6198;51.446;6.698;2023-03-01T08:40:09;16.90;;;10.73;;
12271;SDS011;6198;51.446;6.698;2023-03-01T08:42:38;18.97;;;9.20;;
12271;SDS011;6198;51.446;6.698;2023-03-01T08:45:04;15.77;;;9.77;;
12271;SDS011;6198;51.446;6.698;2023-03-01T08:47:30;13.43;;;9.57;;
12271;SDS011;6198;51.446;6.698;2023-03-01T08:49:58;12.87;;;9.23;;
12271;SDS011;6198;51.446;6.698;2023-03-01T08:52:24;13.27;;;9.53;;
12271;SDS011;6198;51.446;6.698;2023-03-01T08:54:51;15.60;;;8.97;;
12271;SDS011;6198;51.446;6.698;2023-03-01T08:57:17;12.97;;;9.90;;
12271;SDS011;6198;51.446;6.698;2023-03-01T08:59:43;16.57;;;8.77;;
12271;SDS011;6198;51.446;6.698;2023-03-01T09:02:13;16.30;;;9.60;;
12271;SDS011;6198;51.446;6.698;2023-03-01T09:04:39;15.13;;;8.50;;
12271;SDS011;6198;51.446;6.698;2023-03-01T09:07:06;13.87;;;6.80;;
12271;SDS011;6198;51.446;6.698;2023-03-01T09:09:32;14.77;;;10.60;;
12271;SDS011;6198;51.446;6.698;2023-03-01T09:11:58;12.37;;;7.17;;
12271;SDS011;6198;51.446;6.698;2023-03-01T09:14:23;11.73;;;9.07;;
12271;SDS011;6198;51.446;6.698;2023-03-01T09:16:49;14.40;;;8.17;;
12271;SDS011;6198;51.446;6.698;2023-03-01T09:19:16;13.20;;;9.50;;
12271;SDS011;6198;51.446;6.698;2023-03-01T09:21:42;12.50;;;7.27;;
12271;SDS011;6198;51.446;6.698;2023-03-01T09:24:17;12.37;;;7.53;;
12271;SDS011;6198;51.446;6.698;2023-03-01T09:26:43;9.00;;;6.73;;
12271;SDS011;6198;51.446;6.698;2023-03-01T09:29:11;9.67;;;7.23;;
12271;SDS011;6198;51.446;6.698;2023-03-01T09:31:37;11.40;;;6.87;;
12271;SDS011;6198;51.446;6.698;2023-03-01T09:34:04;10.73;;;6.83;;
12271;SDS011;6198;51.446;6.698;2023-03-01T09:36:30;13.73;;;7.43;;
12271;SDS011;6198;51.446;6.698;2023-03-01T09:38:57;7.87;;;6.57;;
12271;SDS011;6198;51.446;6.698;2023-03-01T09:43:51;7.23;;;5.50;;
12271;SDS011;6198;51.446;6.698;2023-03-01T09:46:19;8.93;;;6.77;;
12271;SDS011;6198;51.446;6.698;2023-03-01T09:48:48;12.83;;;7.37;;
12271;SDS011;6198;51.446;6.698;2023-03-01T09:51:17;14.00;;;8.93;;
12271;SDS011;6198;51.446;6.698;2023-03-01T09:53:45;12.03;;;7.80;;
12271;SDS011;6198;51.446;6.698;2023-03-01T09:56:13;16.07;;;8.87;;
12271;SDS011;6198;51.446;6.698;2023-03-01T10:06:48;10.77;;;8.63;;
12271;SDS011;6198;51.446;6.698;2023-03-01T10:09:16;10.53;;;8.07;;
12271;SDS011;6198;51.446;6.698;2023-03-01T10:11:45;9.13;;;6.33;;
12271;SDS011;6198;51.446;6.698;2023-03-01T10:14:16;12.40;;;7.90;;
12271;SDS011;6198;51.446;6.698;2023-03-01T10:19:21;11.07;;;5.83;;
12271;SDS011;6198;51.446;6.698;2023-03-01T10:21:48;8.67;;;6.73;;
12271;SDS011;6198;51.446;6.698;2023-03-01T10:24:17;9.00;;;6.67;;
12271;SDS011;6198;51.446;6.698;2023-03-01T10:26:54;9.40;;;7.10;;
12271;SDS011;6198;51.446;6.698;2023-03-01T10:29:23;11.10;;;7.73;;
12271;SDS011;6198;51.446;6.698;2023-03-01T10:31:50;14.20;;;8.77;;
12271;SDS011;6198;51.446;6.698;2023-03-01T10:34:18;8.53;;;6.30;;
12271;SDS011;6198;51.446;6.698;2023-03-01T10:36:47;11.33;;;8.40;;
12271;SDS011;6198;51.446;6.698;2023-03-01T10:39:17;11.07;;;8.27;;
12271;SDS011;6198;51.446;6.698;2023-03-01T10:41:54;9.87;;;7.33;;
12271;SDS011;6198;51.446;6.698;2023-03-01T10:44:37;10.70;;;6.47;;
12271;SDS011;6198;51.446;6.698;2023-03-01T10:47:04;9.60;;;6.90;;
12271;SDS011;6198;51.446;6.698;2023-03-01T10:49:30;9.20;;;5.97;;
12271;SDS011;6198;51.446;6.698;2023-03-01T10:51:55;11.43;;;7.53;;
12271;SDS011;6198;51.446;6.698;2023-03-01T10:54:36;10.40;;;6.43;;
12271;SDS011;6198;51.446;6.698;2023-03-01T10:57:05;7.80;;;5.53;;
12271;SDS011;6198;51.446;6.698;2023-03-01T10:59:32;9.17;;;7.27;;
12271;SDS011;6198;51.446;6.698;2023-03-01T11:04:27;8.67;;;6.63;;
12271;SDS011;6198;51.446;6.698;2023-03-01T11:06:57;11.90;;;7.00;;
12271;SDS011;6198;51.446;6.698;2023-03-01T11:09:24;11.60;;;7.03;;
12271;SDS011;6198;51.446;6.698;2023-03-01T11:11:54;9.07;;;6.40;;
12271;SDS011;6198;51.446;6.698;2023-03-01T11:14:24;6.60;;;5.27;;
12271;SDS011;6198;51.446;6.698;2023-03-01T11:17:01;6.53;;;4.63;;
12271;SDS011;6198;51.446;6.698;2023-03-01T11:19:28;10.30;;;7.00;;
12271;SDS011;6198;51.446;6.698;2023-03-01T11:21:55;9.53;;;7.30;;
12271;SDS011;6198;51.446;6.698;2023-03-01T11:24:41;15.47;;;7.63;;
12271;SDS011;6198;51.446;6.698;2023-03-01T11:27:14;12.93;;;7.90;;
12271;SDS011;6198;51.446;6.698;2023-03-01T11:29:42;8.07;;;5.47;;
12271;SDS011;6198;51.446;6.698;2023-03-01T11:32:11;7.50;;;5.50;;
12271;SDS011;6198;51.446;6.698;2023-03-01T11:34:40;10.97;;;6.70;;
12271;SDS011;6198;51.446;6.698;2023-03-01T11:37:22;8.53;;;6.47;;
12271;SDS011;6198;51.446;6.698;2023-03-01T11:39:54;8.90;;;6.53;;
12271;SDS011;6198;51.446;6.698;2023-03-01T11:42:28;8.07;;;5.90;;
12271;SDS011;6198;51.446;6.698;2023-03-01T11:44:59;13.20;;;6.73;;
12271;SDS011;6198;51.446;6.698;2023-03-01T12:05:29;9.27;;;5.40;;
12271;SDS011;6198;51.446;6.698;2023-03-01T12:10:27;7.60;;;5.80;;
12271;SDS011;6198;51.446;6.698;2023-03-01T12:12:58;10.27;;;5.80;;
12271;SDS011;6198;51.446;6.698;2023-03-01T12:15:33;7.93;;;5.10;;
12271;SDS011;6198;51.446;6.698;2023-03-01T12:18:07;10.60;;;6.37;;
12271;SDS011;6198;51.446;6.698;2023-03-01T12:20:56;10.67;;;6.57;;
12271;SDS011;6198;51.446;6.698;2023-03-01T12:36:41;7.60;;;5.57;;
12271;SDS011;6198;51.446;6.698;2023-03-01T12:39:34;6.90;;;5.83;;
12271;SDS011;6198;51.446;6.698;2023-03-01T12:44:30;6.37;;;5.07;;
12271;SDS011;6198;51.446;6.698;2023-03-01T12:49:54;6.97;;;5.50;;
12271;SDS011;6198;51.446;6.698;2023-03-01T12:54:51;7.67;;;6.20;;
12271;SDS011;6198;51.446;6.698;2023-03-01T13:02:36;8.57;;;6.80;;
12271;SDS011;6198;51.446;6.698;2023-03-01T13:07:47;6.03;;;5.13;;
12271;SDS011;6198;51.446;6.698;2023-03-01T13:10:21;7.37;;;5.77;;
12271;SDS011;6198;51.446;6.698;2023-03-01T13:15:33;13.43;;;6.03;;
12271;SDS011;6198;51.446;6.698;2023-03-01T13:23:06;9.17;;;6.37;;
12271;SDS011;6198;51.446;6.698;2023-03-01T13:25:33;10.13;;;7.10;;
12271;SDS011;6198;51.446;6.698;2023-03-01T13:30:43;6.20;;;4.43;;
12271;SDS011;6198;51.446;6.698;2023-03-01T13:33:33;8.10;;;5.63;;
12271;SDS011;6198;51.446;6.698;2023-03-01T13:35:56;7.77;;;5.57;;
12271;SDS011;6198;51.446;6.698;2023-03-01T13:41:07;8.03;;;5.30;;
12271;SDS011;6198;51.446;6.698;2023-03-01T13:43:37;8.93;;;6.20;;
12271;SDS011;6198;51.446;6.698;2023-03-01T13:46:11;9.70;;;6.67;;
12271;SDS011;6198;51.446;6.698;2023-03-01T13:48:38;6.37;;;4.27;;
12271;SDS011;6198;51.446;6.698;2023-03-01T13:51:06;9.07;;;5.90;;
12271;SDS011;6198;51.446;6.698;2023-03-01T13:53:38;9.40;;;6.43;;
12271;SDS011;6198;51.446;6.698;2023-03-01T13:56:09;8.53;;;5.37;;
12271;SDS011;6198;51.446;6.698;2023-03-01T13:58:49;9.50;;;7.47;;
12271;SDS011;6198;51.446;6.698;2023-03-01T14:01:24;8.67;;;6.83;;
12271;SDS011;6198;51.446;6.698;2023-03-01T14:03:50;9.77;;;6.30;;
12271;SDS011;6198;51.446;6.698;2023-03-01T14:06:19;7.87;;;4.60;;
12271;SDS011;6198;51.446;6.698;2023-03-01T14:08:46;8.80;;;6.77;;
12271;SDS011;6198;51.446;6.698;2023-03-01T14:21:34;11.23;;;6.87;;
12271;SDS011;6198;51.446;6.698;2023-03-01T14:24:01;9.73;;;6.40;;
12271;SDS011;6198;51.446;6.698;2023-03-01T14:26:27;7.87;;;6.30;;
12271;SDS011;6198;51.446;6.698;2023-03-01T14:28:53;10.20;;;6.53;;
12271;SDS011;6198;51.446;6.698;2023-03-01T14:33:55;10.00;;;7.60;;
12271;SDS011;6198;51.446;6.698;2023-03-01T14:36:25;6.40;;;5.07;;
12271;SDS011;6198;51.446;6.698;2023-03-01T14:38:52;13.60;;;6.80;;
12271;SDS011;6198;51.446;6.698;2023-03-01T14:41:20;8.97;;;6.43;;
12271;SDS011;6198;51.446;6.698;2023-03-01T14:43:50;8.33;;;5.87;;
12271;SDS011;6198;51.446;6.698;2023-03-01T14:46:18;10.33;;;7.23;;
12271;SDS011;6198;51.446;6.698;2023-03-01T14:48:47;10.47;;;6.23;;
12271;SDS011;6198;51.446;6.698;2023-03-01T14:51:13;14.37;;;8.87;;
12271;SDS011;6198;51.446;6.698;2023-03-01T14:53:39;9.90;;;7.93;;
12271;SDS011;6198;51.446;6.698;2023-03-01T14:56:12;11.73;;;7.60;;
12271;SDS011;6198;51.446;6.698;2023-03-01T14:58:38;8.57;;;6.60;;
12271;SDS011;6198;51.446;6.698;2023-03-01T15:01:04;7.60;;;4.97;;
12271;SDS011;6198;51.446;6.698;2023-03-01T15:03:40;10.10;;;7.77;;
12271;SDS011;6198;51.446;6.698;2023-03-01T15:06:08;10.23;;;8.00;;
12271;SDS011;6198;51.446;6.698;2023-03-01T15:08:35;12.73;;;7.60;;
12271;SDS011;6198;51.446;6.698;2023-03-01T15:11:15;10.30;;;6.70;;
12271;SDS011;6198;51.446;6.698;2023-03-01T15:13:42;11.93;;;8.43;;
12271;SDS011;6198;51.446;6.698;2023-03-01T15:16:12;10.73;;;7.97;;
12271;SDS011;6198;51.446;6.698;2023-03-01T15:18:46;10.97;;;8.73;;
12271;SDS011;6198;51.446;6.698;2023-03-01T15:21:17;10.00;;;7.63;;
12271;SDS011;6198;51.446;6.698;2023-03-01T15:23:47;11.10;;;7.50;;
12271;SDS011;6198;51.446;6.698;2023-03-01T15:26:21;12.17;;;8.53;;
12271;SDS011;6198;51.446;6.698;2023-03-01T15:28:49;11.48;;;9.23;;
12271;SDS011;6198;51.446;6.698;2023-03-01T15:31:22;10.73;;;8.80;;
12271;SDS011;6198;51.446;6.698;2023-03-01T15:33:49;11.17;;;9.10;;
12271;SDS011;6198;51.446;6.698;2023-03-01T15:36:37;12.43;;;6.93;;
12271;SDS011;6198;51.446;6.698;2023-03-01T15:39:04;8.27;;;6.37;;
12271;SDS011;6198;51.446;6.698;2023-03-01T15:41:47;10.10;;;6.57;;
12271;SDS011;6198;51.446;6.698;2023-03-01T15:44:14;8.40;;;6.53;;
12271;SDS011;6198;51.446;6.698;2023-03-01T15:46:44;10.60;;;7.70;;
12271;SDS011;6198;51.446;6.698;2023-03-01T15:51:56;9.20;;;6.30;;
12271;SDS011;6198;51.446;6.698;2023-03-01T15:54:23;7.67;;;5.73;;
12271;SDS011;6198;51.446;6.698;2023-03-01T15:56:49;10.57;;;7.30;;
12271;SDS011;6198;51.446;6.698;2023-03-01T15:59:15;9.53;;;5.80;;
12271;SDS011;6198;51.446;6.698;2023-03-01T16:01:42;7.17;;;5.33;;
12271;SDS011;6198;51.446;6.698;2023-03-01T16:04:09;8.23;;;6.80;;
12271;SDS011;6198;51.446;6.698;2023-03-01T16:06:38;10.33;;;7.67;;
12271;SDS011;6198;51.446;6.698;2023-03-01T16:09:04;9.40;;;6.77;;
12271;SDS011;6198;51.446;6.698;2023-03-01T16:11:30;9.37;;;6.97;;
12271;SDS011;6198;51.446;6.698;2023-03-01T16:13:57;11.20;;;6.63;;
12271;SDS011;6198;51.446;6.698;2023-03-01T16:16:23;10.03;;;6.73;;
12271;SDS011;6198;51.446;6.698;2023-03-01T16:18:49;10.17;;;7.37;;
12271;SDS011;6198;51.446;6.698;2023-03-01T16:21:22;13.07;;;7.07;;
12271;SDS011;6198;51.446;6.698;2023-03-01T16:23:49;10.10;;;7.60;;
12271;SDS011;6198;51.446;6.698;2023-03-01T16:26:15;8.57;;;6.23;;
12271;SDS011;6198;51.446;6.698;2023-03-01T16:28:43;10.27;;;7.27;;
12271;SDS011;6198;51.446;6.698;2023-03-01T16:31:09;8.47;;;7.00;;
12271;SDS011;6198;51.446;6.698;2023-03-01T16:33:35;10.00;;;8.13;;
12271;SDS011;6198;51.446;6.698;2023-03-01T16:36:06;12.53;;;7.77;;